Terminal Aerodrome Forecast
Issued by NWS Sterling, VA

Current Version | Previous Version | Text Only | Print | Product List | Glossary Off
Versions: 1 2 3 4 5 6 7 8 9 10 11 12 13 14 15 16 17 18 19 20 21

000
FTUS41 KLWX 160500
TAFIAD
TAF
KIAD 160524Z 1606/1712 19005KT P6SM BKN050
     FM160900 25004KT P6SM OVC030
     FM161100 VRB03KT P6SM BKN040
     FM161500 33008KT P6SM SCT070
     FM170000 01004KT P6SM FEW080=

USA.gov is the U.S. government's official web portal to all federal, state and local government web resources and services.